sensor_id;sensor_type;location;lat;lon;timestamp;P1;durP1;ratioP1;P2;durP2;ratioP2
50745;SDS011;36711;51.972;21.204;2023-09-07T00:00:04;14.10;;;7.90;;
50745;SDS011;36711;51.972;21.204;2023-09-07T00:03:14;11.20;;;7.90;;
50745;SDS011;36711;51.972;21.204;2023-09-07T00:05:45;16.40;;;8.70;;
50745;SDS011;36711;51.972;21.204;2023-09-07T00:08:14;15.30;;;8.10;;
50745;SDS011;36711;51.972;21.204;2023-09-07T00:10:46;17.10;;;7.80;;
50745;SDS011;36711;51.972;21.204;2023-09-07T00:13:18;12.80;;;7.70;;
50745;SDS011;36711;51.972;21.204;2023-09-07T00:15:49;13.70;;;7.60;;
50745;SDS011;36711;51.972;21.204;2023-09-07T00:18:20;13.80;;;8.40;;
50745;SDS011;36711;51.972;21.204;2023-09-07T00:21:05;16.60;;;8.20;;
50745;SDS011;36711;51.972;21.204;2023-09-07T00:23:35;14.00;;;7.60;;
50745;SDS011;36711;51.972;21.204;2023-09-07T00:26:04;14.20;;;8.10;;
50745;SDS011;36711;51.972;21.204;2023-09-07T00:28:47;15.20;;;7.60;;
50745;SDS011;36711;51.972;21.204;2023-09-07T00:31:34;16.50;;;7.90;;
50745;SDS011;36711;51.972;21.204;2023-09-07T00:34:09;21.40;;;8.40;;
50745;SDS011;36711;51.972;21.204;2023-09-07T00:36:39;13.50;;;7.90;;
50745;SDS011;36711;51.972;21.204;2023-09-07T00:39:19;14.60;;;7.70;;
50745;SDS011;36711;51.972;21.204;2023-09-07T00:41:48;11.20;;;7.30;;
50745;SDS011;36711;51.972;21.204;2023-09-07T00:45:07;15.80;;;7.50;;
50745;SDS011;36711;51.972;21.204;2023-09-07T00:47:39;10.60;;;6.50;;
50745;SDS011;36711;51.972;21.204;2023-09-07T00:50:14;13.20;;;7.30;;
50745;SDS011;36711;51.972;21.204;2023-09-07T00:52:45;10.70;;;6.90;;
50745;SDS011;36711;51.972;21.204;2023-09-07T00:55:15;10.70;;;6.70;;
50745;SDS011;36711;51.972;21.204;2023-09-07T00:57:45;14.70;;;7.20;;
50745;SDS011;36711;51.972;21.204;2023-09-07T01:00:22;16.30;;;7.70;;
50745;SDS011;36711;51.972;21.204;2023-09-07T01:02:58;13.20;;;7.10;;
50745;SDS011;36711;51.972;21.204;2023-09-07T01:05:41;18.20;;;8.00;;
50745;SDS011;36711;51.972;21.204;2023-09-07T01:08:19;10.10;;;7.10;;
50745;SDS011;36711;51.972;21.204;2023-09-07T01:10:50;9.40;;;6.20;;
50745;SDS011;36711;51.972;21.204;2023-09-07T01:13:19;12.40;;;6.80;;
50745;SDS011;36711;51.972;21.204;2023-09-07T01:15:52;11.90;;;6.70;;
50745;SDS011;36711;51.972;21.204;2023-09-07T01:18:21;11.60;;;7.20;;
50745;SDS011;36711;51.972;21.204;2023-09-07T01:20:53;11.00;;;6.80;;
50745;SDS011;36711;51.972;21.204;2023-09-07T01:23:30;12.80;;;7.20;;
50745;SDS011;36711;51.972;21.204;2023-09-07T01:26:03;12.60;;;7.60;;
50745;SDS011;36711;51.972;21.204;2023-09-07T01:28:33;12.80;;;7.80;;
50745;SDS011;36711;51.972;21.204;2023-09-07T01:31:13;12.20;;;6.40;;
50745;SDS011;36711;51.972;21.204;2023-09-07T01:33:42;11.60;;;6.00;;
50745;SDS011;36711;51.972;21.204;2023-09-07T01:36:11;10.80;;;6.30;;
50745;SDS011;36711;51.972;21.204;2023-09-07T01:38:43;13.10;;;6.90;;
50745;SDS011;36711;51.972;21.204;2023-09-07T01:41:14;14.40;;;6.70;;
50745;SDS011;36711;51.972;21.204;2023-09-07T01:43:43;12.00;;;7.10;;
50745;SDS011;36711;51.972;21.204;2023-09-07T01:46:12;12.10;;;7.70;;
50745;SDS011;36711;51.972;21.204;2023-09-07T01:48:41;13.10;;;7.10;;
50745;SDS011;36711;51.972;21.204;2023-09-07T01:51:17;10.30;;;6.40;;
50745;SDS011;36711;51.972;21.204;2023-09-07T01:53:50;8.30;;;5.80;;
50745;SDS011;36711;51.972;21.204;2023-09-07T01:56:23;10.60;;;5.90;;
50745;SDS011;36711;51.972;21.204;2023-09-07T01:58:52;11.30;;;6.80;;
50745;SDS011;36711;51.972;21.204;2023-09-07T02:01:24;10.50;;;7.00;;
50745;SDS011;36711;51.972;21.204;2023-09-07T02:04:13;10.90;;;6.70;;
50745;SDS011;36711;51.972;21.204;2023-09-07T02:07:06;12.90;;;7.60;;
50745;SDS011;36711;51.972;21.204;2023-09-07T02:09:38;12.30;;;7.40;;
50745;SDS011;36711;51.972;21.204;2023-09-07T02:12:09;12.10;;;8.00;;
50745;SDS011;36711;51.972;21.204;2023-09-07T02:14:39;15.40;;;6.80;;
50745;SDS011;36711;51.972;21.204;2023-09-07T02:17:13;8.20;;;5.80;;
50745;SDS011;36711;51.972;21.204;2023-09-07T02:19:49;12.20;;;6.40;;
50745;SDS011;36711;51.972;21.204;2023-09-07T02:22:21;11.00;;;6.40;;
50745;SDS011;36711;51.972;21.204;2023-09-07T02:24:55;12.50;;;6.80;;
50745;SDS011;36711;51.972;21.204;2023-09-07T02:27:27;9.20;;;6.70;;
50745;SDS011;36711;51.972;21.204;2023-09-07T02:29:57;10.20;;;7.00;;
50745;SDS011;36711;51.972;21.204;2023-09-07T02:32:26;14.40;;;7.80;;
50745;SDS011;36711;51.972;21.204;2023-09-07T02:35:00;11.60;;;7.00;;
50745;SDS011;36711;51.972;21.204;2023-09-07T02:37:29;14.70;;;5.90;;
50745;SDS011;36711;51.972;21.204;2023-09-07T02:40:06;10.50;;;6.40;;
50745;SDS011;36711;51.972;21.204;2023-09-07T02:42:47;9.90;;;6.50;;
50745;SDS011;36711;51.972;21.204;2023-09-07T02:45:16;13.70;;;7.20;;
50745;SDS011;36711;51.972;21.204;2023-09-07T02:48:02;13.60;;;7.40;;
50745;SDS011;36711;51.972;21.204;2023-09-07T02:50:34;10.40;;;7.30;;
50745;SDS011;36711;51.972;21.204;2023-09-07T02:53:05;12.90;;;7.30;;
50745;SDS011;36711;51.972;21.204;2023-09-07T02:55:58;11.50;;;6.60;;
50745;SDS011;36711;51.972;21.204;2023-09-07T02:58:27;13.70;;;6.60;;
50745;SDS011;36711;51.972;21.204;2023-09-07T03:04:20;11.40;;;6.70;;
50745;SDS011;36711;51.972;21.204;2023-09-07T03:06:52;9.10;;;6.80;;
50745;SDS011;36711;51.972;21.204;2023-09-07T03:09:45;9.60;;;7.30;;
50745;SDS011;36711;51.972;21.204;2023-09-07T03:12:17;12.10;;;6.70;;
50745;SDS011;36711;51.972;21.204;2023-09-07T03:14:47;12.20;;;7.50;;
50745;SDS011;36711;51.972;21.204;2023-09-07T03:17:17;9.50;;;6.40;;
50745;SDS011;36711;51.972;21.204;2023-09-07T03:19:49;10.40;;;6.00;;
50745;SDS011;36711;51.972;21.204;2023-09-07T03:22:20;10.20;;;6.10;;
50745;SDS011;36711;51.972;21.204;2023-09-07T03:24:50;9.80;;;6.50;;
50745;SDS011;36711;51.972;21.204;2023-09-07T03:27:22;10.10;;;6.60;;
50745;SDS011;36711;51.972;21.204;2023-09-07T03:29:51;9.90;;;7.40;;
50745;SDS011;36711;51.972;21.204;2023-09-07T03:32:30;10.20;;;7.20;;
50745;SDS011;36711;51.972;21.204;2023-09-07T03:35:03;13.60;;;7.50;;
50745;SDS011;36711;51.972;21.204;2023-09-07T03:38:27;10.10;;;6.30;;
50745;SDS011;36711;51.972;21.204;2023-09-07T03:41:05;10.30;;;6.60;;
50745;SDS011;36711;51.972;21.204;2023-09-07T03:43:37;9.70;;;6.50;;
50745;SDS011;36711;51.972;21.204;2023-09-07T03:46:09;12.70;;;7.10;;
50745;SDS011;36711;51.972;21.204;2023-09-07T03:48:43;11.90;;;7.50;;
50745;SDS011;36711;51.972;21.204;2023-09-07T03:51:17;11.80;;;7.40;;
50745;SDS011;36711;51.972;21.204;2023-09-07T03:53:49;14.20;;;7.50;;
50745;SDS011;36711;51.972;21.204;2023-09-07T03:56:18;12.10;;;7.40;;
50745;SDS011;36711;51.972;21.204;2023-09-07T03:58:47;9.90;;;6.90;;
50745;SDS011;36711;51.972;21.204;2023-09-07T04:01:29;10.40;;;6.40;;
50745;SDS011;36711;51.972;21.204;2023-09-07T04:03:57;14.10;;;6.70;;
50745;SDS011;36711;51.972;21.204;2023-09-07T04:06:27;16.10;;;7.30;;
50745;SDS011;36711;51.972;21.204;2023-09-07T04:09:04;15.40;;;7.70;;
50745;SDS011;36711;51.972;21.204;2023-09-07T04:11:37;10.60;;;6.50;;
50745;SDS011;36711;51.972;21.204;2023-09-07T04:14:08;10.80;;;7.30;;
50745;SDS011;36711;51.972;21.204;2023-09-07T04:16:37;12.30;;;7.50;;
50745;SDS011;36711;51.972;21.204;2023-09-07T04:19:10;10.90;;;6.90;;
50745;SDS011;36711;51.972;21.204;2023-09-07T04:21:40;11.80;;;6.80;;
50745;SDS011;36711;51.972;21.204;2023-09-07T04:24:26;10.70;;;6.00;;
50745;SDS011;36711;51.972;21.204;2023-09-07T04:27:10;12.80;;;7.50;;
50745;SDS011;36711;51.972;21.204;2023-09-07T04:29:49;11.60;;;6.30;;
50745;SDS011;36711;51.972;21.204;2023-09-07T04:32:18;13.20;;;7.30;;
50745;SDS011;36711;51.972;21.204;2023-09-07T04:34:56;11.00;;;7.00;;
50745;SDS011;36711;51.972;21.204;2023-09-07T04:37:25;11.80;;;7.60;;
50745;SDS011;36711;51.972;21.204;2023-09-07T04:40:00;11.00;;;6.60;;
50745;SDS011;36711;51.972;21.204;2023-09-07T04:42:46;10.50;;;5.80;;
50745;SDS011;36711;51.972;21.204;2023-09-07T04:45:23;7.30;;;5.50;;
50745;SDS011;36711;51.972;21.204;2023-09-07T04:47:55;9.90;;;6.80;;
50745;SDS011;36711;51.972;21.204;2023-09-07T04:50:27;10.30;;;6.80;;
50745;SDS011;36711;51.972;21.204;2023-09-07T04:52:56;12.90;;;7.20;;
50745;SDS011;36711;51.972;21.204;2023-09-07T04:55:26;12.60;;;8.00;;
50745;SDS011;36711;51.972;21.204;2023-09-07T04:57:57;10.80;;;7.40;;
50745;SDS011;36711;51.972;21.204;2023-09-07T05:00:26;10.00;;;7.10;;
50745;SDS011;36711;51.972;21.204;2023-09-07T05:03:00;11.20;;;6.20;;
50745;SDS011;36711;51.972;21.204;2023-09-07T05:05:32;9.40;;;6.70;;
50745;SDS011;36711;51.972;21.204;2023-09-07T05:08:04;12.60;;;6.90;;
50745;SDS011;36711;51.972;21.204;2023-09-07T05:10:42;13.70;;;7.50;;
50745;SDS011;36711;51.972;21.204;2023-09-07T05:13:14;18.90;;;8.80;;
50745;SDS011;36711;51.972;21.204;2023-09-07T05:15:52;17.50;;;7.90;;
50745;SDS011;36711;51.972;21.204;2023-09-07T05:18:22;13.70;;;7.90;;
50745;SDS011;36711;51.972;21.204;2023-09-07T05:20:51;12.30;;;7.40;;
50745;SDS011;36711;51.972;21.204;2023-09-07T05:23:37;13.50;;;6.80;;
50745;SDS011;36711;51.972;21.204;2023-09-07T05:26:08;9.90;;;6.90;;
50745;SDS011;36711;51.972;21.204;2023-09-07T05:28:40;12.30;;;7.50;;
50745;SDS011;36711;51.972;21.204;2023-09-07T05:31:16;15.70;;;8.20;;
50745;SDS011;36711;51.972;21.204;2023-09-07T05:33:53;15.00;;;8.60;;
50745;SDS011;36711;51.972;21.204;2023-09-07T05:36:26;16.90;;;8.20;;
50745;SDS011;36711;51.972;21.204;2023-09-07T05:38:55;15.20;;;7.60;;
50745;SDS011;36711;51.972;21.204;2023-09-07T05:41:24;13.50;;;7.70;;
50745;SDS011;36711;51.972;21.204;2023-09-07T05:43:57;17.90;;;6.50;;
50745;SDS011;36711;51.972;21.204;2023-09-07T05:46:48;17.60;;;8.20;;
50745;SDS011;36711;51.972;21.204;2023-09-07T05:49:18;21.20;;;8.20;;
50745;SDS011;36711;51.972;21.204;2023-09-07T05:51:47;22.80;;;8.40;;
50745;SDS011;36711;51.972;21.204;2023-09-07T05:54:19;14.60;;;7.40;;
50745;SDS011;36711;51.972;21.204;2023-09-07T05:56:48;14.40;;;6.70;;
50745;SDS011;36711;51.972;21.204;2023-09-07T05:59:20;14.80;;;7.10;;
50745;SDS011;36711;51.972;21.204;2023-09-07T06:01:57;11.80;;;7.40;;
50745;SDS011;36711;51.972;21.204;2023-09-07T06:04:32;14.30;;;8.00;;
50745;SDS011;36711;51.972;21.204;2023-09-07T06:07:26;20.00;;;8.30;;
50745;SDS011;36711;51.972;21.204;2023-09-07T06:10:12;14.10;;;8.40;;
50745;SDS011;36711;51.972;21.204;2023-09-07T06:12:41;19.90;;;8.70;;
50745;SDS011;36711;51.972;21.204;2023-09-07T06:15:10;17.50;;;8.40;;
50745;SDS011;36711;51.972;21.204;2023-09-07T06:17:55;14.80;;;8.60;;
50745;SDS011;36711;51.972;21.204;2023-09-07T06:20:43;15.10;;;7.60;;
50745;SDS011;36711;51.972;21.204;2023-09-07T06:23:22;16.40;;;8.70;;
50745;SDS011;36711;51.972;21.204;2023-09-07T06:25:53;14.00;;;8.50;;
50745;SDS011;36711;51.972;21.204;2023-09-07T06:28:31;21.30;;;8.80;;
50745;SDS011;36711;51.972;21.204;2023-09-07T06:31:01;17.00;;;8.70;;
50745;SDS011;36711;51.972;21.204;2023-09-07T06:35:35;17.80;;;8.90;;
50745;SDS011;36711;51.972;21.204;2023-09-07T06:38:27;20.20;;;8.50;;
50745;SDS011;36711;51.972;21.204;2023-09-07T06:41:03;16.00;;;7.20;;
50745;SDS011;36711;51.972;21.204;2023-09-07T06:43:34;12.70;;;7.10;;
50745;SDS011;36711;51.972;21.204;2023-09-07T06:46:06;16.30;;;7.90;;
50745;SDS011;36711;51.972;21.204;2023-09-07T06:48:36;20.50;;;8.70;;
50745;SDS011;36711;51.972;21.204;2023-09-07T06:51:08;17.30;;;8.10;;
50745;SDS011;36711;51.972;21.204;2023-09-07T06:53:38;16.40;;;7.80;;
50745;SDS011;36711;51.972;21.204;2023-09-07T06:56:25;18.70;;;7.90;;
50745;SDS011;36711;51.972;21.204;2023-09-07T06:58:59;14.10;;;7.80;;
50745;SDS011;36711;51.972;21.204;2023-09-07T07:01:42;13.80;;;7.50;;
50745;SDS011;36711;51.972;21.204;2023-09-07T07:04:14;19.60;;;7.90;;
50745;SDS011;36711;51.972;21.204;2023-09-07T07:06:43;14.50;;;7.80;;
50745;SDS011;36711;51.972;21.204;2023-09-07T07:09:13;9.80;;;6.90;;
50745;SDS011;36711;51.972;21.204;2023-09-07T07:11:47;15.70;;;7.20;;
50745;SDS011;36711;51.972;21.204;2023-09-07T07:14:34;11.70;;;5.70;;
50745;SDS011;36711;51.972;21.204;2023-09-07T07:17:04;11.80;;;6.30;;
50745;SDS011;36711;51.972;21.204;2023-09-07T07:19:34;12.30;;;6.20;;
50745;SDS011;36711;51.972;21.204;2023-09-07T07:22:05;12.10;;;7.30;;
50745;SDS011;36711;51.972;21.204;2023-09-07T07:24:34;16.60;;;7.60;;
50745;SDS011;36711;51.972;21.204;2023-09-07T07:27:08;17.10;;;7.50;;
50745;SDS011;36711;51.972;21.204;2023-09-07T07:29:37;15.60;;;7.20;;
50745;SDS011;36711;51.972;21.204;2023-09-07T07:32:37;14.70;;;6.40;;
50745;SDS011;36711;51.972;21.204;2023-09-07T07:35:09;13.20;;;6.20;;
50745;SDS011;36711;51.972;21.204;2023-09-07T07:37:38;14.30;;;5.70;;
50745;SDS011;36711;51.972;21.204;2023-09-07T07:40:08;15.40;;;5.70;;
50745;SDS011;36711;51.972;21.204;2023-09-07T07:45:11;7.70;;;5.40;;
50745;SDS011;36711;51.972;21.204;2023-09-07T07:48:03;9.40;;;5.90;;
50745;SDS011;36711;51.972;21.204;2023-09-07T07:51:17;10.70;;;5.60;;
50745;SDS011;36711;51.972;21.204;2023-09-07T07:53:59;7.90;;;5.20;;
50745;SDS011;36711;51.972;21.204;2023-09-07T07:56:28;12.70;;;5.50;;
50745;SDS011;36711;51.972;21.204;2023-09-07T07:59:07;9.20;;;5.20;;
50745;SDS011;36711;51.972;21.204;2023-09-07T08:01:55;12.00;;;5.20;;
50745;SDS011;36711;51.972;21.204;2023-09-07T08:04:24;10.30;;;4.90;;
50745;SDS011;36711;51.972;21.204;2023-09-07T08:06:52;7.60;;;4.30;;
50745;SDS011;36711;51.972;21.204;2023-09-07T08:12:30;8.70;;;4.40;;
50745;SDS011;36711;51.972;21.204;2023-09-07T08:15:37;5.60;;;4.50;;
50745;SDS011;36711;51.972;21.204;2023-09-07T08:18:06;8.90;;;4.20;;
50745;SDS011;36711;51.972;21.204;2023-09-07T08:21:01;11.00;;;4.40;;
50745;SDS011;36711;51.972;21.204;2023-09-07T08:23:32;12.60;;;4.10;;
50745;SDS011;36711;51.972;21.204;2023-09-07T08:26:29;8.90;;;4.20;;
50745;SDS011;36711;51.972;21.204;2023-09-07T08:29:01;7.10;;;3.70;;
50745;SDS011;36711;51.972;21.204;2023-09-07T08:31:35;8.70;;;4.10;;
50745;SDS011;36711;51.972;21.204;2023-09-07T08:34:04;7.60;;;4.10;;
50745;SDS011;36711;51.972;21.204;2023-09-07T08:36:56;6.30;;;3.90;;
50745;SDS011;36711;51.972;21.204;2023-09-07T08:40:01;7.80;;;3.60;;
50745;SDS011;36711;51.972;21.204;2023-09-07T08:42:47;9.00;;;4.50;;
50745;SDS011;36711;51.972;21.204;2023-09-07T08:45:57;6.10;;;4.40;;
50745;SDS011;36711;51.972;21.204;2023-09-07T08:48:29;5.10;;;3.50;;
50745;SDS011;36711;51.972;21.204;2023-09-07T08:51:06;10.10;;;3.70;;
50745;SDS011;36711;51.972;21.204;2023-09-07T08:53:36;7.80;;;4.00;;
50745;SDS011;36711;51.972;21.204;2023-09-07T08:56:06;5.70;;;3.70;;
50745;SDS011;36711;51.972;21.204;2023-09-07T08:58:41;7.80;;;4.00;;
50745;SDS011;36711;51.972;21.204;2023-09-07T09:01:13;6.10;;;3.90;;
50745;SDS011;36711;51.972;21.204;2023-09-07T09:03:55;5.10;;;3.80;;
50745;SDS011;36711;51.972;21.204;2023-09-07T09:06:27;5.70;;;3.60;;
50745;SDS011;36711;51.972;21.204;2023-09-07T09:08:56;6.10;;;3.40;;
50745;SDS011;36711;51.972;21.204;2023-09-07T09:11:35;8.00;;;3.20;;
50745;SDS011;36711;51.972;21.204;2023-09-07T09:14:06;6.00;;;2.60;;
50745;SDS011;36711;51.972;21.204;2023-09-07T09:16:42;6.20;;;3.00;;
50745;SDS011;36711;51.972;21.204;2023-09-07T09:19:15;7.70;;;2.80;;
50745;SDS011;36711;51.972;21.204;2023-09-07T09:21:47;3.70;;;2.40;;
50745;SDS011;36711;51.972;21.204;2023-09-07T09:24:19;4.00;;;2.20;;
50745;SDS011;36711;51.972;21.204;2023-09-07T09:26:57;4.10;;;2.10;;
50745;SDS011;36711;51.972;21.204;2023-09-07T09:29:33;4.40;;;2.10;;
50745;SDS011;36711;51.972;21.204;2023-09-07T09:32:04;4.80;;;2.00;;
50745;SDS011;36711;51.972;21.204;2023-09-07T09:34:37;6.00;;;2.00;;
50745;SDS011;36711;51.972;21.204;2023-09-07T09:37:13;5.70;;;1.60;;
50745;SDS011;36711;51.972;21.204;2023-09-07T09:39:52;5.80;;;2.10;;
50745;SDS011;36711;51.972;21.204;2023-09-07T09:42:23;4.50;;;2.10;;
50745;SDS011;36711;51.972;21.204;2023-09-07T09:45:10;3.40;;;2.30;;
50745;SDS011;36711;51.972;21.204;2023-09-07T09:47:47;4.40;;;1.90;;
50745;SDS011;36711;51.972;21.204;2023-09-07T09:50:42;1.90;;;1.80;;
50745;SDS011;36711;51.972;21.204;2023-09-07T09:53:22;2.50;;;2.00;;
50745;SDS011;36711;51.972;21.204;2023-09-07T09:55:56;3.80;;;2.40;;
50745;SDS011;36711;51.972;21.204;2023-09-07T09:58:32;2.40;;;2.20;;
50745;SDS011;36711;51.972;21.204;2023-09-07T10:01:03;5.00;;;2.80;;
50745;SDS011;36711;51.972;21.204;2023-09-07T10:03:42;4.20;;;3.30;;
50745;SDS011;36711;51.972;21.204;2023-09-07T10:06:22;4.40;;;3.50;;
50745;SDS011;36711;51.972;21.204;2023-09-07T10:09:06;4.00;;;3.70;;
50745;SDS011;36711;51.972;21.204;2023-09-07T10:11:53;4.10;;;3.90;;
50745;SDS011;36711;51.972;21.204;2023-09-07T10:14:37;9.30;;;5.00;;
50745;SDS011;36711;51.972;21.204;2023-09-07T10:17:25;5.20;;;4.90;;
50745;SDS011;36711;51.972;21.204;2023-09-07T10:20:14;4.70;;;4.50;;
50745;SDS011;36711;51.972;21.204;2023-09-07T10:22:47;4.40;;;4.20;;
50745;SDS011;36711;51.972;21.204;2023-09-07T10:26:04;4.50;;;4.30;;
50745;SDS011;36711;51.972;21.204;2023-09-07T10:28:36;4.90;;;4.70;;
50745;SDS011;36711;51.972;21.204;2023-09-07T10:31:24;5.20;;;5.00;;
50745;SDS011;36711;51.972;21.204;2023-09-07T10:34:07;4.90;;;4.70;;
50745;SDS011;36711;51.972;21.204;2023-09-07T10:36:36;4.90;;;4.70;;
50745;SDS011;36711;51.972;21.204;2023-09-07T10:39:35;4.20;;;4.10;;
50745;SDS011;36711;51.972;21.204;2023-09-07T10:42:04;3.80;;;3.70;;
50745;SDS011;36711;51.972;21.204;2023-09-07T10:44:40;3.20;;;3.10;;
50745;SDS011;36711;51.972;21.204;2023-09-07T10:49:17;2.30;;;2.30;;
50745;SDS011;36711;51.972;21.204;2023-09-07T10:52:00;2.00;;;2.00;;
50745;SDS011;36711;51.972;21.204;2023-09-07T10:54:40;1.70;;;1.70;;
50745;SDS011;36711;51.972;21.204;2023-09-07T10:57:11;1.60;;;1.60;;
50745;SDS011;36711;51.972;21.204;2023-09-07T10:59:48;1.60;;;1.60;;
50745;SDS011;36711;51.972;21.204;2023-09-07T11:02:17;1.60;;;1.60;;
50745;SDS011;36711;51.972;21.204;2023-09-07T11:04:46;1.40;;;1.40;;
50745;SDS011;36711;51.972;21.204;2023-09-07T11:07:18;1.60;;;1.60;;
50745;SDS011;36711;51.972;21.204;2023-09-07T11:09:59;1.40;;;1.40;;
50745;SDS011;36711;51.972;21.204;2023-09-07T11:13:24;2.60;;;1.30;;
50745;SDS011;36711;51.972;21.204;2023-09-07T11:15:56;2.40;;;2.20;;
50745;SDS011;36711;51.972;21.204;2023-09-07T11:18:45;2.20;;;1.60;;
50745;SDS011;36711;51.972;21.204;2023-09-07T11:21:22;2.40;;;1.10;;
50745;SDS011;36711;51.972;21.204;2023-09-07T11:23:56;2.10;;;0.90;;
50745;SDS011;36711;51.972;21.204;2023-09-07T11:26:43;3.20;;;1.10;;
50745;SDS011;36711;51.972;21.204;2023-09-07T11:29:22;3.40;;;1.50;;
50745;SDS011;36711;51.972;21.204;2023-09-07T11:32:04;3.10;;;1.80;;
50745;SDS011;36711;51.972;21.204;2023-09-07T11:34:52;5.40;;;1.80;;
50745;SDS011;36711;51.972;21.204;2023-09-07T11:37:27;4.10;;;2.00;;
50745;SDS011;36711;51.972;21.204;2023-09-07T11:40:03;4.40;;;1.90;;
50745;SDS011;36711;51.972;21.204;2023-09-07T11:42:40;4.90;;;1.80;;
50745;SDS011;36711;51.972;21.204;2023-09-07T11:45:39;3.90;;;2.10;;
50745;SDS011;36711;51.972;21.204;2023-09-07T11:48:13;5.40;;;1.90;;
50745;SDS011;36711;51.972;21.204;2023-09-07T11:50:44;5.00;;;1.50;;
50745;SDS011;36711;51.972;21.204;2023-09-07T11:53:49;8.50;;;1.90;;
50745;SDS011;36711;51.972;21.204;2023-09-07T11:56:28;2.50;;;1.80;;
50745;SDS011;36711;51.972;21.204;2023-09-07T11:58:57;40.00;;;3.10;;
50745;SDS011;36711;51.972;21.204;2023-09-07T12:01:29;3.10;;;1.60;;
50745;SDS011;36711;51.972;21.204;2023-09-07T12:04:17;4.20;;;1.70;;
50745;SDS011;36711;51.972;21.204;2023-09-07T12:06:46;3.60;;;1.60;;
50745;SDS011;36711;51.972;21.204;2023-09-07T12:11:50;1.80;;;1.50;;
50745;SDS011;36711;51.972;21.204;2023-09-07T12:14:33;4.40;;;1.50;;
50745;SDS011;36711;51.972;21.204;2023-09-07T12:17:13;4.50;;;1.50;;
50745;SDS011;36711;51.972;21.204;2023-09-07T12:19:43;3.40;;;1.50;;
50745;SDS011;36711;51.972;21.204;2023-09-07T12:22:27;1.50;;;1.40;;
50745;SDS011;36711;51.972;21.204;2023-09-07T12:25:21;3.70;;;1.60;;
50745;SDS011;36711;51.972;21.204;2023-09-07T12:27:52;2.70;;;1.80;;
50745;SDS011;36711;51.972;21.204;2023-09-07T12:30:23;4.00;;;1.60;;
50745;SDS011;36711;51.972;21.204;2023-09-07T12:33:01;4.30;;;1.90;;
50745;SDS011;36711;51.972;21.204;2023-09-07T12:35:31;3.50;;;1.70;;
50745;SDS011;36711;51.972;21.204;2023-09-07T12:38:19;2.30;;;1.30;;
50745;SDS011;36711;51.972;21.204;2023-09-07T12:40:58;2.20;;;1.60;;
50745;SDS011;36711;51.972;21.204;2023-09-07T12:43:29;3.00;;;1.60;;
50745;SDS011;36711;51.972;21.204;2023-09-07T12:46:05;2.00;;;1.60;;
50745;SDS011;36711;51.972;21.204;2023-09-07T12:48:35;3.90;;;1.50;;
50745;SDS011;36711;51.972;21.204;2023-09-07T12:51:18;3.60;;;1.80;;
50745;SDS011;36711;51.972;21.204;2023-09-07T12:53:47;1.70;;;1.10;;
50745;SDS011;36711;51.972;21.204;2023-09-07T12:56:33;2.60;;;1.30;;
50745;SDS011;36711;51.972;21.204;2023-09-07T12:59:02;1.50;;;1.00;;
50745;SDS011;36711;51.972;21.204;2023-09-07T13:01:36;2.80;;;1.20;;
50745;SDS011;36711;51.972;21.204;2023-09-07T13:04:10;4.00;;;1.40;;
50745;SDS011;36711;51.972;21.204;2023-09-07T13:06:50;3.60;;;1.70;;
50745;SDS011;36711;51.972;21.204;2023-09-07T13:09:43;1.30;;;1.20;;
50745;SDS011;36711;51.972;21.204;2023-09-07T13:12:22;3.50;;;1.60;;
50745;SDS011;36711;51.972;21.204;2023-09-07T13:15:02;3.50;;;1.30;;
50745;SDS011;36711;51.972;21.204;2023-09-07T13:17:42;3.50;;;1.50;;
50745;SDS011;36711;51.972;21.204;2023-09-07T13:20:16;5.20;;;1.50;;
50745;SDS011;36711;51.972;21.204;2023-09-07T13:23:08;2.70;;;1.50;;
50745;SDS011;36711;51.972;21.204;2023-09-07T13:25:41;2.80;;;1.40;;
50745;SDS011;36711;51.972;21.204;2023-09-07T13:28:27;3.40;;;1.50;;
50745;SDS011;36711;51.972;21.204;2023-09-07T13:31:00;2.60;;;1.50;;
50745;SDS011;36711;51.972;21.204;2023-09-07T13:33:41;5.10;;;1.80;;
50745;SDS011;36711;51.972;21.204;2023-09-07T13:36:15;5.50;;;1.70;;
50745;SDS011;36711;51.972;21.204;2023-09-07T13:38:44;4.40;;;1.50;;
50745;SDS011;36711;51.972;21.204;2023-09-07T13:41:27;2.70;;;1.40;;
50745;SDS011;36711;51.972;21.204;2023-09-07T13:44:11;3.80;;;1.50;;
50745;SDS011;36711;51.972;21.204;2023-09-07T13:46:54;2.40;;;1.10;;
50745;SDS011;36711;51.972;21.204;2023-09-07T13:49:32;2.90;;;1.70;;
50745;SDS011;36711;51.972;21.204;2023-09-07T13:52:01;4.80;;;1.70;;
50745;SDS011;36711;51.972;21.204;2023-09-07T13:54:30;3.20;;;1.30;;
50745;SDS011;36711;51.972;21.204;2023-09-07T13:56:59;4.20;;;1.60;;
50745;SDS011;36711;51.972;21.204;2023-09-07T13:59:43;5.10;;;1.70;;
50745;SDS011;36711;51.972;21.204;2023-09-07T14:06:05;4.00;;;1.70;;
50745;SDS011;36711;51.972;21.204;2023-09-07T14:08:45;5.40;;;1.50;;
50745;SDS011;36711;51.972;21.204;2023-09-07T14:11:22;6.40;;;1.60;;
50745;SDS011;36711;51.972;21.204;2023-09-07T14:16:15;3.90;;;1.90;;
50745;SDS011;36711;51.972;21.204;2023-09-07T14:18:51;2.20;;;1.60;;
50745;SDS011;36711;51.972;21.204;2023-09-07T14:21:22;1.70;;;1.60;;
50745;SDS011;36711;51.972;21.204;2023-09-07T14:23:54;1.70;;;1.40;;
50745;SDS011;36711;51.972;21.204;2023-09-07T14:26:28;3.70;;;1.70;;
50745;SDS011;36711;51.972;21.204;2023-09-07T14:29:22;4.00;;;1.40;;
50745;SDS011;36711;51.972;21.204;2023-09-07T14:31:56;3.20;;;1.60;;
50745;SDS011;36711;51.972;21.204;2023-09-07T14:34:27;3.10;;;1.70;;
50745;SDS011;36711;51.972;21.204;2023-09-07T14:36:58;3.90;;;1.60;;
50745;SDS011;36711;51.972;21.204;2023-09-07T14:39:31;2.80;;;1.80;;
50745;SDS011;36711;51.972;21.204;2023-09-07T14:42:15;5.20;;;1.40;;
50745;SDS011;36711;51.972;21.204;2023-09-07T14:45:11;4.50;;;1.90;;
50745;SDS011;36711;51.972;21.204;2023-09-07T14:47:54;2.80;;;1.60;;
50745;SDS011;36711;51.972;21.204;2023-09-07T14:50:47;3.60;;;1.90;;
50745;SDS011;36711;51.972;21.204;2023-09-07T14:53:25;8.60;;;3.10;;
50745;SDS011;36711;51.972;21.204;2023-09-07T14:56:02;14.60;;;6.30;;
50745;SDS011;36711;51.972;21.204;2023-09-07T14:58:31;21.60;;;7.20;;
50745;SDS011;36711;51.972;21.204;2023-09-07T15:01:00;9.60;;;5.40;;
50745;SDS011;36711;51.972;21.204;2023-09-07T15:03:35;8.10;;;5.10;;
50745;SDS011;36711;51.972;21.204;2023-09-07T15:06:36;7.50;;;3.80;;
50745;SDS011;36711;51.972;21.204;2023-09-07T15:09:06;4.20;;;2.70;;
50745;SDS011;36711;51.972;21.204;2023-09-07T15:11:44;7.50;;;2.40;;
50745;SDS011;36711;51.972;21.204;2023-09-07T15:14:17;11.00;;;2.40;;
50745;SDS011;36711;51.972;21.204;2023-09-07T15:17:02;14.20;;;2.80;;
50745;SDS011;36711;51.972;21.204;2023-09-07T15:19:33;6.80;;;2.40;;
50745;SDS011;36711;51.972;21.204;2023-09-07T15:22:36;6.10;;;2.10;;
50745;SDS011;36711;51.972;21.204;2023-09-07T15:25:05;3.90;;;1.70;;
50745;SDS011;36711;51.972;21.204;2023-09-07T15:27:43;5.50;;;2.10;;
50745;SDS011;36711;51.972;21.204;2023-09-07T15:30:14;3.10;;;2.10;;
50745;SDS011;36711;51.972;21.204;2023-09-07T15:32:55;8.40;;;5.20;;
50745;SDS011;36711;51.972;21.204;2023-09-07T15:35:27;4.70;;;2.20;;
50745;SDS011;36711;51.972;21.204;2023-09-07T15:38:11;6.90;;;3.10;;
50745;SDS011;36711;51.972;21.204;2023-09-07T15:43:14;3.90;;;2.70;;
50745;SDS011;36711;51.972;21.204;2023-09-07T15:45:49;6.90;;;2.50;;
50745;SDS011;36711;51.972;21.204;2023-09-07T15:48:25;16.50;;;3.00;;